createdAt,value
2022-11-06T00:00:28.643Z,87.53
2022-11-06T00:01:28.671Z,87.43
2022-11-06T00:02:28.688Z,87.53
2022-11-06T00:03:28.689Z,87.43
2022-11-06T00:04:28.593Z,87.32
2022-11-06T00:05:28.585Z,87.32
2022-11-06T00:06:28.574Z,87.22
2022-11-06T00:07:28.566Z,87.32
2022-11-06T00:08:28.572Z,87.32
2022-11-06T00:09:28.542Z,87.32
2022-11-06T00:10:28.535Z,87.22
2022-11-06T00:11:28.523Z,87.22
2022-11-06T00:12:28.505Z,87.22
2022-11-06T00:13:28.526Z,87.22
2022-11-06T00:14:28.493Z,87.22
2022-11-06T00:15:28.477Z,87.22
2022-11-06T00:16:28.467Z,87.02
2022-11-06T00:17:28.455Z,87.02
2022-11-06T00:18:28.468Z,87.12
2022-11-06T00:19:28.438Z,87.12
2022-11-06T00:20:28.416Z,87.02
2022-11-06T00:21:28.406Z,86.91
2022-11-06T00:22:28.397Z,86.91
2022-11-06T00:23:28.425Z,87.02
2022-11-06T00:24:28.396Z,86.91
2022-11-06T00:25:28.374Z,86.91
2022-11-06T00:26:28.357Z,86.91
2022-11-06T00:27:28.383Z,86.91
2022-11-06T00:28:28.356Z,87.12
2022-11-06T00:29:28.326Z,87.12
2022-11-06T00:30:29.084Z,87.22
2022-11-06T00:31:28.306Z,87.43
2022-11-06T00:32:28.291Z,87.22
2022-11-06T00:33:28.407Z,87.02
2022-11-06T00:34:28.278Z,86.91
2022-11-06T00:35:28.404Z,86.91
2022-11-06T00:36:29.517Z,87.02
2022-11-06T00:37:28.247Z,87.02
2022-11-06T00:38:28.248Z,86.91
2022-11-06T00:39:28.282Z,87.02
2022-11-06T00:40:28.207Z,87.02
2022-11-06T00:41:28.201Z,86.91
2022-11-06T00:42:28.184Z,87.02
2022-11-06T00:43:28.188Z,86.81
2022-11-06T00:44:28.181Z,86.71
2022-11-06T00:45:28.181Z,86.81
2022-11-06T00:46:28.139Z,86.71
2022-11-06T00:47:28.131Z,86.71
2022-11-06T00:48:28.119Z,86.81
2022-11-06T00:49:28.149Z,86.81
2022-11-06T00:50:28.098Z,86.81
2022-11-06T00:51:28.088Z,86.71
2022-11-06T00:52:28.080Z,86.71
2022-11-06T00:53:28.078Z,86.71
2022-11-06T00:54:28.057Z,86.61
2022-11-06T00:55:28.071Z,86.61
2022-11-06T00:56:28.036Z,86.71
2022-11-06T00:57:28.030Z,86.91
2022-11-06T00:58:28.031Z,86.81
2022-11-06T00:59:28.021Z,86.61
2022-11-06T01:00:27.992Z,86.71
2022-11-06T01:01:28.198Z,86.81
2022-11-06T01:02:28.057Z,86.81
2022-11-06T01:03:27.967Z,86.81
2022-11-06T01:04:27.973Z,86.81
2022-11-06T01:05:27.960Z,86.91
2022-11-06T01:06:27.921Z,86.91
2022-11-06T01:07:27.920Z,86.91
2022-11-06T01:08:27.951Z,87.02
2022-11-06T01:09:27.892Z,87.12
2022-11-06T01:10:27.900Z,87.02
2022-11-06T01:11:28.538Z,87.12
2022-11-06T01:12:27.861Z,87.22
2022-11-06T01:13:27.860Z,87.22
2022-11-06T01:14:27.838Z,87.22
2022-11-06T01:15:27.854Z,87.32
2022-11-06T01:16:27.822Z,87.32
2022-11-06T01:17:27.809Z,87.43
2022-11-06T01:18:27.802Z,87.43
2022-11-06T01:19:27.798Z,87.63
2022-11-06T01:20:27.773Z,87.63
2022-11-06T01:21:27.784Z,87.63
2022-11-06T01:22:27.752Z,87.67
2022-11-06T01:23:27.775Z,87.88
2022-11-06T01:24:27.846Z,87.88
2022-11-06T01:25:27.722Z,87.98
2022-11-06T01:26:37.895Z,87.98
2022-11-06T01:27:28.702Z,87.88
2022-11-06T01:28:27.684Z,87.98
2022-11-06T01:29:27.671Z,87.98
2022-11-06T01:30:27.683Z,88.08
2022-11-06T01:31:27.651Z,88.08
2022-11-06T01:32:27.644Z,88.08
2022-11-06T01:33:27.693Z,88.08
2022-11-06T01:34:27.620Z,88.08
2022-11-06T01:35:27.625Z,88.08
2022-11-06T01:36:27.624Z,87.98
2022-11-06T01:37:27.584Z,87.98
2022-11-06T01:38:27.573Z,88.08
2022-11-06T01:39:27.565Z,88.08
2022-11-06T01:40:27.553Z,88.08
2022-11-06T01:41:27.563Z,88.18
2022-11-06T01:42:27.526Z,88.18
2022-11-06T01:43:27.567Z,88.18
2022-11-06T01:44:27.513Z,88.39
2022-11-06T01:45:27.503Z,88.39
2022-11-06T01:46:27.506Z,88.49
2022-11-06T01:47:27.478Z,88.49
2022-11-06T01:48:27.466Z,88.49
2022-11-06T01:49:27.456Z,88.49
2022-11-06T01:50:27.445Z,88.70
2022-11-06T01:51:27.434Z,88.70
2022-11-06T01:52:27.443Z,88.80
2022-11-06T01:53:27.424Z,88.90
2022-11-06T01:54:27.395Z,88.90
2022-11-06T01:55:27.396Z,89.04
2022-11-06T01:56:27.379Z,89.04
2022-11-06T01:57:27.395Z,89.04
2022-11-06T01:58:27.357Z,88.94
2022-11-06T01:59:27.347Z,89.04
2022-11-06T02:00:27.338Z,89.04
2022-11-06T02:01:27.438Z,89.15
2022-11-06T02:02:27.505Z,89.15
2022-11-06T02:03:27.349Z,89.15
2022-11-06T02:04:27.295Z,89.25
2022-11-06T02:05:27.287Z,89.36
2022-11-06T02:06:27.273Z,89.45
2022-11-06T02:07:27.265Z,89.45
2022-11-06T02:08:27.254Z,89.56
2022-11-06T02:09:27.266Z,89.56
2022-11-06T02:10:27.228Z,89.81
2022-11-06T02:11:27.223Z,89.90
2022-11-06T02:12:27.207Z,90.11
2022-11-06T02:13:27.210Z,90.22
2022-11-06T02:14:27.209Z,90.32
2022-11-06T02:15:27.195Z,90.42
2022-11-06T02:16:27.158Z,90.67
2022-11-06T02:17:27.157Z,90.67
2022-11-06T02:18:27.144Z,90.77
2022-11-06T02:19:27.136Z,90.77
2022-11-06T02:20:27.146Z,90.97
2022-11-06T02:21:27.115Z,91.08
2022-11-06T02:22:27.109Z,91.18
2022-11-06T02:23:27.105Z,91.28
2022-11-06T02:24:27.087Z,91.18
2022-11-06T02:25:27.097Z,91.28
2022-11-06T02:26:27.058Z,91.38
2022-11-06T02:27:27.054Z,91.53
2022-11-06T02:28:27.037Z,91.49
2022-11-06T02:29:27.027Z,91.38
2022-11-06T02:30:27.038Z,91.38
2022-11-06T02:31:27.008Z,91.38
2022-11-06T02:32:26.998Z,91.42
2022-11-06T02:33:26.998Z,91.63
2022-11-06T02:34:26.968Z,91.63
2022-11-06T02:35:26.989Z,91.63
2022-11-06T02:36:26.958Z,91.63
2022-11-06T02:37:26.946Z,91.63
2022-11-06T02:38:26.936Z,91.84
2022-11-06T02:39:26.920Z,91.94
2022-11-06T02:40:26.928Z,92.04
2022-11-06T02:41:26.908Z,91.94
2022-11-06T02:42:26.889Z,92.04
2022-11-06T02:43:26.890Z,92.19
2022-11-06T02:44:26.868Z,92.19
2022-11-06T02:45:26.890Z,92.19
2022-11-06T02:46:26.847Z,92.14
2022-11-06T02:47:26.847Z,92.14
2022-11-06T02:48:26.828Z,92.08
2022-11-06T02:49:26.820Z,92.29
2022-11-06T02:50:26.834Z,92.29
2022-11-06T02:51:26.796Z,92.40
2022-11-06T02:52:26.778Z,92.40
2022-11-06T02:53:26.792Z,92.40
2022-11-06T02:54:26.758Z,92.50
2022-11-06T02:55:26.748Z,92.50
2022-11-06T02:56:26.760Z,92.70
2022-11-06T02:57:26.729Z,92.70
2022-11-06T02:58:26.711Z,92.80
2022-11-06T02:59:26.709Z,92.91
2022-11-06T03:00:26.689Z,92.95
2022-11-06T03:01:26.835Z,93.05
2022-11-06T03:02:26.823Z,93.16
2022-11-06T03:03:26.682Z,93.16
2022-11-06T03:04:26.651Z,93.05
2022-11-06T03:05:26.641Z,93.16
2022-11-06T03:06:26.650Z,93.16
2022-11-06T03:07:26.628Z,93.16
2022-11-06T03:08:26.609Z,93.05
2022-11-06T03:09:26.601Z,93.05
2022-11-06T03:10:26.588Z,93.05
2022-11-06T03:11:26.601Z,93.05
2022-11-06T03:12:26.560Z,93.05
2022-11-06T03:13:26.573Z,93.05
2022-11-06T03:14:26.539Z,93.05
2022-11-06T03:15:26.531Z,93.16
2022-11-06T03:16:26.539Z,93.16
2022-11-06T03:17:26.520Z,93.16
2022-11-06T03:18:26.520Z,93.16
2022-11-06T03:19:26.493Z,93.26
2022-11-06T03:20:26.479Z,93.36
2022-11-06T03:21:26.492Z,93.46
2022-11-06T03:22:26.463Z,93.46
2022-11-06T03:23:26.461Z,93.46
2022-11-06T03:24:30.894Z,93.57
2022-11-06T03:25:26.433Z,93.71
2022-11-06T03:26:26.440Z,93.82
2022-11-06T03:27:26.410Z,93.92
2022-11-06T03:28:26.392Z,93.82
2022-11-06T03:29:26.389Z,93.67
2022-11-06T03:30:26.371Z,93.71
2022-11-06T03:31:26.390Z,93.71
2022-11-06T03:32:26.372Z,93.71
2022-11-06T03:33:26.350Z,93.82
2022-11-06T03:34:26.331Z,93.82
2022-11-06T03:35:26.328Z,93.92
2022-11-06T03:36:26.332Z,94.02
2022-11-06T03:37:26.308Z,94.12
2022-11-06T03:38:26.283Z,94.23
2022-11-06T03:39:26.281Z,94.23
2022-11-06T03:40:26.264Z,94.23
2022-11-06T03:41:26.263Z,94.33
2022-11-06T03:42:26.265Z,94.37
2022-11-06T03:43:26.244Z,94.48
2022-11-06T03:44:26.221Z,94.58
2022-11-06T03:45:26.223Z,94.68
2022-11-06T03:46:26.225Z,94.78
2022-11-06T03:47:26.193Z,94.78
2022-11-06T03:48:26.181Z,94.78
2022-11-06T03:49:26.173Z,94.78
2022-11-06T03:50:26.163Z,94.68
2022-11-06T03:51:26.172Z,94.68
2022-11-06T03:52:26.132Z,94.68
2022-11-06T03:53:26.142Z,94.68
2022-11-06T03:54:26.124Z,94.78
2022-11-06T03:55:26.115Z,94.89
2022-11-06T03:56:26.092Z,94.89
2022-11-06T03:57:26.105Z,95.09
2022-11-06T03:58:26.131Z,95.09
2022-11-06T03:59:26.065Z,95.09
2022-11-06T04:00:26.050Z,95.09
2022-11-06T04:01:26.106Z,95.20
2022-11-06T04:02:26.232Z,95.20
2022-11-06T04:03:26.054Z,95.20
2022-11-06T04:04:26.005Z,95.24
2022-11-06T04:05:26.004Z,95.45
2022-11-06T04:06:25.995Z,95.55
2022-11-06T04:07:25.982Z,95.65
2022-11-06T04:08:25.984Z,95.75
2022-11-06T04:09:25.954Z,95.75
2022-11-06T04:10:25.944Z,95.86
2022-11-06T04:11:25.933Z,95.96
2022-11-06T04:12:25.914Z,96.06
2022-11-06T04:13:25.924Z,95.96
2022-11-06T04:14:25.922Z,95.96
2022-11-06T04:15:25.905Z,95.96
2022-11-06T04:16:25.885Z,95.86
2022-11-06T04:17:25.864Z,95.86
2022-11-06T04:18:25.863Z,95.96
2022-11-06T04:19:25.867Z,95.96
2022-11-06T04:20:25.852Z,95.86
2022-11-06T04:21:25.854Z,95.86
2022-11-06T04:22:25.815Z,95.86
2022-11-06T04:23:25.814Z,95.86
2022-11-06T04:24:25.795Z,95.75
2022-11-06T04:25:25.805Z,95.75
2022-11-06T04:26:25.764Z,95.75
2022-11-06T04:27:25.764Z,95.61
2022-11-06T04:28:25.755Z,95.61
2022-11-06T04:29:25.758Z,95.40
2022-11-06T04:30:25.728Z,95.40
2022-11-06T04:31:25.708Z,95.30
2022-11-06T04:32:25.708Z,95.40
2022-11-06T04:33:25.708Z,95.30
2022-11-06T04:34:25.682Z,95.30
2022-11-06T04:35:25.693Z,95.20
2022-11-06T04:36:25.667Z,95.20
2022-11-06T04:37:25.647Z,95.30
2022-11-06T04:38:25.637Z,95.30
2022-11-06T04:39:25.629Z,95.30
2022-11-06T04:40:25.645Z,95.20
2022-11-06T04:41:25.604Z,95.09
2022-11-06T04:42:25.599Z,95.20
2022-11-06T04:43:25.596Z,95.09
2022-11-06T04:44:25.575Z,95.09
2022-11-06T04:45:25.587Z,94.99
2022-11-06T04:46:25.554Z,94.78
2022-11-06T04:47:25.549Z,94.64
2022-11-06T04:48:25.537Z,94.54
2022-11-06T04:49:25.516Z,94.54
2022-11-06T04:50:25.528Z,94.43
2022-11-06T04:51:25.497Z,94.33
2022-11-06T04:52:25.486Z,94.33
2022-11-06T04:53:25.515Z,94.23
2022-11-06T04:54:25.475Z,94.12
2022-11-06T04:55:25.478Z,94.12
2022-11-06T04:56:25.845Z,94.12
2022-11-06T04:57:25.436Z,94.12
2022-11-06T04:58:25.418Z,94.02
2022-11-06T04:59:25.414Z,94.02
2022-11-06T05:00:25.430Z,94.02
2022-11-06T05:01:25.519Z,94.02
2022-11-06T05:02:25.468Z,94.12
2022-11-06T05:03:25.380Z,94.12
2022-11-06T05:04:25.367Z,94.12
2022-11-06T05:05:25.377Z,94.02
2022-11-06T05:06:29.782Z,93.92
2022-11-06T05:07:26.327Z,93.82
2022-11-06T05:08:25.319Z,93.82
2022-11-06T05:09:25.300Z,93.82
2022-11-06T05:10:25.298Z,93.92
2022-11-06T05:11:25.308Z,93.92
2022-11-06T05:12:25.278Z,93.92
2022-11-06T05:13:25.327Z,94.02
2022-11-06T05:14:25.250Z,94.12
2022-11-06T05:15:25.269Z,94.12
2022-11-06T05:16:25.238Z,94.12
2022-11-06T05:17:25.218Z,94.23
2022-11-06T05:18:25.213Z,94.37
2022-11-06T05:19:25.198Z,94.48
2022-11-06T05:20:25.192Z,94.48
2022-11-06T05:21:25.199Z,94.58
2022-11-06T05:22:25.170Z,94.58
2022-11-06T05:23:25.168Z,94.58
2022-11-06T05:24:25.149Z,94.58
2022-11-06T05:25:25.131Z,94.58
2022-11-06T05:26:25.127Z,94.68
2022-11-06T05:27:25.135Z,94.78
2022-11-06T05:28:25.101Z,94.78
2022-11-06T05:29:25.097Z,94.78
2022-11-06T05:30:25.080Z,94.68
2022-11-06T05:31:25.088Z,94.78
2022-11-06T05:32:25.081Z,94.68
2022-11-06T05:33:25.051Z,94.68
2022-11-06T05:34:25.041Z,94.68
2022-11-06T05:35:25.032Z,94.68
2022-11-06T05:36:25.069Z,94.68
2022-11-06T05:37:25.008Z,94.78
2022-11-06T05:38:24.997Z,94.68
2022-11-06T05:39:24.981Z,94.68
2022-11-06T05:40:24.980Z,94.68
2022-11-06T05:41:24.970Z,94.68
2022-11-06T05:42:24.981Z,94.78
2022-11-06T05:43:24.949Z,94.78
2022-11-06T05:44:24.949Z,94.78
2022-11-06T05:45:24.920Z,94.89
2022-11-06T05:46:47.215Z,94.89
2022-11-06T05:47:25.922Z,94.89
2022-11-06T05:48:24.892Z,94.89
2022-11-06T05:49:24.880Z,94.89
2022-11-06T05:50:24.891Z,94.78
2022-11-06T05:51:24.853Z,94.68
2022-11-06T05:52:24.849Z,94.54
2022-11-06T05:53:24.844Z,94.54
2022-11-06T05:54:24.829Z,94.58
2022-11-06T05:55:24.830Z,94.64
2022-11-06T05:56:24.802Z,94.68
2022-11-06T05:57:24.791Z,94.68
2022-11-06T05:58:24.784Z,94.78
2022-11-06T05:59:24.800Z,94.64
2022-11-06T06:00:24.767Z,94.64
2022-11-06T06:01:24.773Z,94.64
2022-11-06T06:02:24.863Z,94.54
2022-11-06T06:03:24.733Z,94.54
2022-11-06T06:04:24.723Z,94.54
2022-11-06T06:05:24.723Z,94.74
2022-11-06T06:06:24.700Z,94.68
2022-11-06T06:07:24.682Z,94.78
2022-11-06T06:08:24.682Z,94.89
2022-11-06T06:09:24.682Z,94.99
2022-11-06T06:10:24.673Z,94.99
2022-11-06T06:11:24.659Z,95.09
2022-11-06T06:12:24.637Z,95.09
2022-11-06T06:13:24.653Z,95.20
2022-11-06T06:14:24.628Z,95.30
2022-11-06T06:15:24.627Z,95.30
2022-11-06T06:16:24.633Z,95.40
2022-11-06T06:17:24.572Z,95.40
2022-11-06T06:18:24.564Z,95.40
2022-11-06T06:19:24.554Z,95.50
2022-11-06T06:20:24.582Z,95.61
2022-11-06T06:21:24.537Z,95.61
2022-11-06T06:22:24.532Z,95.61
2022-11-06T06:23:24.523Z,95.86
2022-11-06T06:24:24.551Z,95.96
2022-11-06T06:25:24.565Z,96.06
2022-11-06T06:26:24.485Z,96.02
2022-11-06T06:27:24.472Z,95.92
2022-11-06T06:28:24.463Z,95.92
2022-11-06T06:29:24.445Z,95.92
2022-11-06T06:30:24.464Z,95.92
2022-11-06T06:31:24.554Z,95.92
2022-11-06T06:32:24.420Z,95.92
2022-11-06T06:33:24.426Z,95.81
2022-11-06T06:34:24.394Z,95.81
2022-11-06T06:35:24.386Z,95.81
2022-11-06T06:36:24.396Z,95.71
2022-11-06T06:37:24.364Z,95.61
2022-11-06T06:38:24.357Z,95.61
2022-11-06T06:39:24.341Z,95.50
2022-11-06T06:40:24.334Z,95.50
2022-11-06T06:41:24.346Z,95.50
2022-11-06T06:42:28.731Z,95.50
2022-11-06T06:43:25.354Z,95.61
2022-11-06T06:44:24.286Z,95.50
2022-11-06T06:45:24.279Z,95.40
2022-11-06T06:46:24.288Z,95.40
2022-11-06T06:47:24.256Z,95.50
2022-11-06T06:48:24.247Z,95.50
2022-11-06T06:49:24.234Z,95.50
2022-11-06T06:50:24.226Z,95.40
2022-11-06T06:51:24.413Z,95.30
2022-11-06T06:52:24.204Z,95.30
2022-11-06T06:53:24.203Z,95.30
2022-11-06T06:54:24.184Z,95.20
2022-11-06T06:55:24.171Z,95.20
2022-11-06T06:56:24.164Z,95.20
2022-11-06T06:57:24.166Z,95.40
2022-11-06T06:58:24.771Z,95.40
2022-11-06T06:59:24.129Z,95.50
2022-11-06T07:00:24.117Z,95.40
2022-11-06T07:01:24.245Z,95.50
2022-11-06T07:02:24.147Z,95.40
2022-11-06T07:03:24.087Z,95.25
2022-11-06T07:04:24.079Z,95.15
2022-11-06T07:05:24.058Z,95.05
2022-11-06T07:06:24.057Z,95.15
2022-11-06T07:07:24.063Z,95.05
2022-11-06T07:08:24.028Z,95.05
2022-11-06T07:09:24.017Z,95.05
2022-11-06T07:10:24.007Z,94.95
2022-11-06T07:11:24.019Z,94.84
2022-11-06T07:12:24.015Z,94.74
2022-11-06T07:13:23.986Z,94.59
2022-11-06T07:14:23.977Z,94.49
2022-11-06T07:15:23.951Z,94.39
2022-11-06T07:16:23.996Z,94.18
2022-11-06T07:17:23.955Z,94.08
2022-11-06T07:18:23.927Z,93.87
2022-11-06T07:19:23.910Z,93.77
2022-11-06T07:20:23.917Z,93.63
2022-11-06T07:21:23.888Z,93.42
2022-11-06T07:22:32.126Z,93.32
2022-11-06T07:23:24.875Z,93.21
2022-11-06T07:24:23.861Z,93.12
2022-11-06T07:25:23.846Z,93.01
2022-11-06T07:26:23.838Z,92.86
2022-11-06T07:27:23.830Z,92.86
2022-11-06T07:28:23.838Z,92.76
2022-11-06T07:29:23.808Z,92.55
2022-11-06T07:30:23.796Z,92.35
2022-11-06T07:31:23.785Z,92.25
2022-11-06T07:32:23.785Z,92.14
2022-11-06T07:33:23.792Z,92.00
2022-11-06T07:34:23.756Z,91.80
2022-11-06T07:35:23.740Z,91.69
2022-11-06T07:36:23.737Z,91.69
2022-11-06T07:37:23.722Z,91.69
2022-11-06T07:38:23.742Z,91.59
2022-11-06T07:39:23.699Z,91.49
2022-11-06T07:40:23.690Z,91.49
2022-11-06T07:41:23.678Z,91.59
2022-11-06T07:42:23.677Z,91.49
2022-11-06T07:43:23.686Z,91.28
2022-11-06T07:44:23.649Z,91.38
2022-11-06T07:45:23.639Z,91.38
2022-11-06T07:46:23.632Z,91.38
2022-11-06T07:47:23.618Z,91.28
2022-11-06T07:48:23.627Z,91.28
2022-11-06T07:49:23.616Z,91.18
2022-11-06T07:50:23.579Z,91.18
2022-11-06T07:51:23.580Z,91.18
2022-11-06T07:52:23.563Z,91.03
2022-11-06T07:53:23.560Z,91.03
2022-11-06T07:54:23.569Z,91.03
2022-11-06T07:55:23.554Z,91.03
2022-11-06T07:56:23.519Z,90.93
2022-11-06T07:57:23.511Z,90.93
2022-11-06T07:58:23.504Z,90.83
2022-11-06T07:59:23.510Z,90.83
2022-11-06T08:00:23.480Z,90.62
2022-11-06T08:01:23.579Z,90.42
2022-11-06T08:02:23.546Z,90.37
2022-11-06T08:03:23.470Z,90.17
2022-11-06T08:04:23.461Z,89.97
2022-11-06T08:05:23.435Z,89.87
2022-11-06T08:06:23.421Z,89.66
2022-11-06T08:07:23.399Z,89.66
2022-11-06T08:08:23.392Z,89.45
2022-11-06T08:09:23.407Z,89.45
2022-11-06T08:10:23.381Z,89.51
2022-11-06T08:11:23.360Z,89.31
2022-11-06T08:12:23.353Z,89.21
2022-11-06T08:13:23.358Z,89.11
2022-11-06T08:14:23.362Z,88.90
2022-11-06T08:15:23.329Z,88.80
2022-11-06T08:16:23.312Z,88.90
2022-11-06T08:17:23.291Z,89.00
2022-11-06T08:18:23.288Z,88.80
2022-11-06T08:19:23.281Z,88.59
2022-11-06T08:20:23.289Z,88.70
2022-11-06T08:21:23.258Z,88.65
2022-11-06T08:22:23.243Z,88.45
2022-11-06T08:23:23.231Z,88.35
2022-11-06T08:24:23.221Z,88.24
2022-11-06T08:25:23.230Z,88.24
2022-11-06T08:26:23.211Z,87.84
2022-11-06T08:27:23.191Z,87.79
2022-11-06T08:28:23.181Z,87.79
2022-11-06T08:29:23.174Z,89.43
2022-11-06T08:30:23.183Z,88.51
2022-11-06T08:31:23.150Z,89.09
2022-11-06T08:32:23.133Z,88.88
2022-11-06T08:33:23.133Z,88.12
2022-11-06T08:34:23.118Z,87.20
2022-11-06T08:35:23.122Z,87.10
2022-11-06T08:36:23.093Z,86.65
2022-11-06T08:37:23.082Z,86.14
2022-11-06T08:38:23.071Z,86.04
2022-11-06T08:39:23.144Z,86.10
2022-11-06T08:40:26.646Z,85.28
2022-11-06T08:41:24.040Z,85.24
2022-11-06T08:42:23.022Z,84.33
2022-11-06T08:43:23.021Z,84.12
2022-11-06T08:44:23.003Z,84.80
2022-11-06T08:45:23.023Z,83.37
2022-11-06T08:46:22.984Z,82.65
2022-11-06T08:47:22.973Z,82.45
2022-11-06T08:48:22.962Z,82.24
2022-11-06T08:49:22.952Z,82.45
2022-11-06T08:50:22.966Z,82.59
2022-11-06T08:51:22.931Z,83.10
2022-11-06T08:52:22.914Z,82.69
2022-11-06T08:53:22.973Z,82.93
2022-11-06T08:54:22.993Z,83.44
2022-11-06T08:55:22.916Z,83.95
2022-11-06T08:56:22.875Z,84.30
2022-11-06T08:57:22.865Z,84.57
2022-11-06T08:58:22.846Z,83.20
2022-11-06T08:59:22.844Z,82.35
2022-11-06T09:00:22.854Z,81.90
2022-11-06T09:01:22.950Z,81.25
2022-11-06T09:02:22.834Z,80.54
2022-11-06T09:03:22.796Z,80.19
2022-11-06T09:04:22.804Z,79.64
2022-11-06T09:05:22.796Z,78.89
2022-11-06T09:06:22.787Z,78.15
2022-11-06T09:07:22.761Z,77.74
2022-11-06T09:08:22.736Z,77.20
2022-11-06T09:09:22.725Z,76.75
2022-11-06T09:10:22.706Z,76.25
2022-11-06T09:11:22.728Z,75.23
2022-11-06T09:12:22.695Z,75.02
2022-11-06T09:13:22.686Z,75.29
2022-11-06T09:14:22.674Z,75.09
2022-11-06T09:15:22.660Z,74.99
2022-11-06T09:16:22.856Z,74.34
2022-11-06T09:17:22.638Z,73.80
2022-11-06T09:18:22.626Z,73.29
2022-11-06T09:19:22.616Z,73.50
2022-11-06T09:20:22.599Z,73.06
2022-11-06T09:21:22.622Z,72.75
2022-11-06T09:22:22.581Z,72.34
2022-11-06T09:23:22.584Z,72.14
2022-11-06T09:24:37.549Z,71.50
2022-11-06T09:25:23.593Z,71.80
2022-11-06T09:26:22.567Z,71.47
2022-11-06T09:27:22.530Z,70.86
2022-11-06T09:28:22.519Z,70.39
2022-11-06T09:29:22.507Z,69.65
2022-11-06T09:30:22.499Z,69.14
2022-11-06T09:31:22.510Z,68.40
2022-11-06T09:32:22.476Z,68.19
2022-11-06T09:33:22.469Z,69.71
2022-11-06T09:34:22.450Z,71.20
2022-11-06T09:35:22.441Z,71.06
2022-11-06T09:36:22.462Z,70.76
2022-11-06T09:37:22.421Z,70.62
2022-11-06T09:38:22.411Z,69.95
2022-11-06T09:39:22.401Z,68.90
2022-11-06T09:40:22.388Z,68.06
2022-11-06T09:41:22.404Z,67.76
2022-11-06T09:42:22.361Z,68.26
2022-11-06T09:43:37.453Z,67.93
2022-11-06T09:44:23.343Z,66.72
2022-11-06T09:45:22.341Z,66.31
2022-11-06T09:46:22.339Z,66.92
2022-11-06T09:47:22.311Z,67.59
2022-11-06T09:48:22.303Z,69.20
2022-11-06T09:49:22.290Z,71.16
2022-11-06T09:50:22.354Z,71.26
2022-11-06T09:51:22.343Z,72.11
2022-11-06T09:52:22.263Z,71.44
2022-11-06T09:53:22.252Z,70.79
2022-11-06T09:54:22.233Z,69.54
2022-11-06T09:55:22.223Z,69.14
2022-11-06T09:56:22.214Z,70.21
2022-11-06T09:57:22.223Z,71.47
2022-11-06T09:58:22.185Z,72.14
2022-11-06T09:59:22.187Z,73.19
2022-11-06T10:00:22.166Z,73.39
2022-11-06T10:01:26.852Z,73.80
2022-11-06T10:02:23.325Z,73.66
2022-11-06T10:03:22.142Z,73.66
2022-11-06T10:04:22.125Z,73.26
2022-11-06T10:05:22.116Z,72.24
2022-11-06T10:06:22.112Z,71.13
2022-11-06T10:07:22.113Z,71.57
2022-11-06T10:08:22.084Z,71.03
2022-11-06T10:09:22.074Z,71.53
2022-11-06T10:10:22.054Z,71.13
2022-11-06T10:11:22.056Z,71.64
2022-11-06T10:12:22.056Z,70.83
2022-11-06T10:13:22.028Z,70.93
2022-11-06T10:14:22.027Z,71.88
2022-11-06T10:15:22.016Z,71.23
2022-11-06T10:16:21.993Z,71.57
2022-11-06T10:17:22.003Z,72.78
2022-11-06T10:18:21.967Z,72.31
2022-11-06T10:19:21.957Z,72.85
2022-11-06T10:20:26.873Z,72.92
2022-11-06T10:21:22.939Z,73.33
2022-11-06T10:22:21.948Z,73.57
2022-11-06T10:23:21.917Z,73.77
2022-11-06T10:24:21.918Z,73.77
2022-11-06T10:25:21.897Z,74.41
2022-11-06T10:26:21.888Z,74.85
2022-11-06T10:27:21.880Z,75.36
2022-11-06T10:28:21.888Z,75.46
2022-11-06T10:29:21.849Z,75.56
2022-11-06T10:30:21.874Z,75.76
2022-11-06T10:31:22.163Z,75.60
2022-11-06T10:32:21.839Z,76.07
2022-11-06T10:33:21.807Z,76.17
2022-11-06T10:34:21.826Z,76.07
2022-11-06T10:35:21.790Z,76.28
2022-11-06T10:36:21.769Z,75.97
2022-11-06T10:37:21.764Z,75.90
2022-11-06T10:38:21.771Z,76.31
2022-11-06T10:39:21.743Z,75.90
2022-11-06T10:40:21.811Z,76.25
2022-11-06T10:41:21.719Z,76.45
2022-11-06T10:42:21.740Z,76.34
2022-11-06T10:43:21.726Z,76.45
2022-11-06T10:44:21.681Z,76.75
2022-11-06T10:45:21.671Z,76.72
2022-11-06T10:46:21.661Z,76.55
2022-11-06T10:47:21.656Z,76.55
2022-11-06T10:48:26.017Z,76.34
2022-11-06T10:49:22.634Z,76.41
2022-11-06T10:50:21.623Z,76.61
2022-11-06T10:51:21.611Z,76.51
2022-11-06T10:52:21.601Z,75.97
2022-11-06T10:53:21.612Z,75.36
2022-11-06T10:54:21.595Z,75.22
2022-11-06T10:55:21.572Z,74.68
2022-11-06T10:56:21.571Z,73.77
2022-11-06T10:57:21.544Z,73.33
2022-11-06T10:58:21.561Z,73.22
2022-11-06T10:59:21.544Z,72.68
2022-11-06T11:00:21.511Z,72.28
2022-11-06T11:01:21.730Z,72.21
2022-11-06T11:02:21.583Z,72.61
2022-11-06T11:03:21.483Z,72.58
2022-11-06T11:04:21.494Z,72.08
2022-11-06T11:05:21.464Z,71.97
2022-11-06T11:06:21.445Z,72.31
2022-11-06T11:07:21.927Z,72.72
2022-11-06T11:08:21.425Z,73.36
2022-11-06T11:09:21.422Z,73.26
2022-11-06T11:10:21.466Z,73.87
2022-11-06T11:11:21.417Z,74.01
2022-11-06T11:12:21.385Z,74.01
2022-11-06T11:13:21.376Z,74.07
2022-11-06T11:14:21.358Z,73.77
2022-11-06T11:15:21.353Z,73.57
2022-11-06T11:16:21.358Z,73.36
2022-11-06T11:17:21.327Z,73.22
2022-11-06T11:18:21.319Z,72.82
2022-11-06T11:19:21.326Z,72.52
2022-11-06T11:20:21.287Z,72.21
2022-11-06T11:21:21.384Z,72.01
2022-11-06T11:22:21.289Z,72.08
2022-11-06T11:23:21.331Z,71.64
2022-11-06T11:24:21.248Z,70.39
2022-11-06T11:25:21.238Z,69.51
2022-11-06T11:26:21.247Z,68.37
2022-11-06T11:27:21.218Z,68.10
2022-11-06T11:28:21.250Z,67.46
2022-11-06T11:29:21.197Z,66.65
2022-11-06T11:30:21.178Z,64.95
2022-11-06T11:31:21.198Z,63.93
2022-11-06T11:32:21.158Z,63.60
2022-11-06T11:33:21.153Z,63.70
2022-11-06T11:34:21.162Z,62.38
2022-11-06T11:35:21.128Z,60.38
2022-11-06T11:36:21.143Z,58.69
2022-11-06T11:37:22.051Z,57.48
2022-11-06T11:38:21.115Z,56.56
2022-11-06T11:39:21.084Z,56.43
2022-11-06T11:40:21.071Z,56.48
2022-11-06T11:41:21.186Z,58.90
2022-11-06T11:42:21.050Z,60.36
2022-11-06T11:43:21.041Z,60.60
2022-11-06T11:44:21.032Z,61.66
2022-11-06T11:45:21.029Z,62.73
2022-11-06T11:46:21.004Z,62.80
2022-11-06T11:47:21.022Z,62.93
2022-11-06T11:48:21.054Z,63.67
2022-11-06T11:49:20.974Z,64.84
2022-11-06T11:50:20.965Z,65.98
2022-11-06T11:51:20.983Z,66.38
2022-11-06T11:52:21.005Z,66.28
2022-11-06T11:53:20.936Z,65.95
2022-11-06T11:54:20.916Z,64.84
2022-11-06T11:55:20.915Z,63.40
2022-11-06T11:56:42.541Z,62.97
2022-11-06T11:57:21.888Z,62.01
2022-11-06T11:58:20.878Z,61.13
2022-11-06T11:59:20.873Z,61.56
2022-11-06T12:00:20.854Z,61.53
2022-11-06T12:01:20.899Z,61.16
2022-11-06T12:02:26.409Z,62.40
2022-11-06T12:03:21.917Z,62.60
2022-11-06T12:04:20.817Z,63.10
2022-11-06T12:05:20.796Z,62.73
2022-11-06T12:06:20.786Z,64.03
2022-11-06T12:07:21.527Z,64.94
2022-11-06T12:08:27.832Z,65.91
2022-11-06T12:09:20.752Z,66.52
2022-11-06T12:10:20.740Z,65.84
2022-11-06T12:11:20.736Z,64.14
2022-11-06T12:12:20.723Z,63.64
2022-11-06T12:13:20.714Z,63.84
2022-11-06T12:14:20.715Z,63.53
2022-11-06T12:15:20.691Z,63.23
2022-11-06T12:16:20.675Z,63.46
2022-11-06T12:17:20.674Z,63.76
2022-11-06T12:18:20.653Z,64.20
2022-11-06T12:19:20.666Z,64.00
2022-11-06T12:20:20.634Z,64.64
2022-11-06T12:21:20.635Z,65.37
2022-11-06T12:22:20.615Z,65.64
2022-11-06T12:23:20.606Z,66.47
2022-11-06T12:24:20.615Z,66.88
2022-11-06T12:25:20.577Z,67.52
2022-11-06T12:26:20.566Z,67.72
2022-11-06T12:27:20.556Z,68.46
2022-11-06T12:28:20.546Z,68.66
2022-11-06T12:29:20.536Z,68.36
2022-11-06T12:30:20.559Z,68.49
2022-11-06T12:31:20.510Z,68.90
2022-11-06T12:32:20.499Z,69.10
2022-11-06T12:33:20.489Z,69.95
2022-11-06T12:34:20.499Z,69.84
2022-11-06T12:35:20.468Z,69.74
2022-11-06T12:36:20.452Z,69.44
2022-11-06T12:37:20.448Z,69.54
2022-11-06T12:38:20.430Z,69.24
2022-11-06T12:39:20.450Z,69.07
2022-11-06T12:40:24.778Z,69.57
2022-11-06T12:41:20.427Z,69.88
2022-11-06T12:42:20.401Z,69.88
2022-11-06T12:43:20.381Z,69.24
2022-11-06T12:44:20.388Z,68.63
2022-11-06T12:45:20.351Z,68.09
2022-11-06T12:46:20.485Z,67.68
2022-11-06T12:47:25.349Z,67.45
2022-11-06T12:48:21.319Z,67.65
2022-11-06T12:49:20.318Z,66.61
2022-11-06T12:50:20.340Z,66.20
2022-11-06T12:51:20.290Z,65.80
2022-11-06T12:52:20.284Z,66.10